sensor_id;sensor_type;location;lat;lon;timestamp;temperature;humidity
55648;DHT22;45266;48.756;9.246;2023-03-29T00:00:59;5.40;99.90
55648;DHT22;45266;48.756;9.246;2023-03-29T00:02:01;5.40;99.90
55648;DHT22;45266;48.756;9.246;2023-03-29T00:03:03;5.40;99.90
55648;DHT22;45266;48.756;9.246;2023-03-29T00:04:06;5.30;99.90
55648;DHT22;45266;48.756;9.246;2023-03-29T00:05:09;5.30;99.90
55648;DHT22;45266;48.756;9.246;2023-03-29T00:06:11;5.30;99.90
55648;DHT22;45266;48.756;9.246;2023-03-29T00:07:15;5.30;99.90
55648;DHT22;45266;48.756;9.246;2023-03-29T00:08:17;5.20;99.90
55648;DHT22;45266;48.756;9.246;2023-03-29T00:09:22;5.20;99.90
55648;DHT22;45266;48.756;9.246;2023-03-29T00:10:27;5.20;99.90
55648;DHT22;45266;48.756;9.246;2023-03-29T00:11:29;5.20;99.90
55648;DHT22;45266;48.756;9.246;2023-03-29T00:12:31;5.20;99.90
55648;DHT22;45266;48.756;9.246;2023-03-29T00:13:34;5.20;99.90
55648;DHT22;45266;48.756;9.246;2023-03-29T00:14:36;5.20;99.90
55648;DHT22;45266;48.756;9.246;2023-03-29T00:15:37;5.20;99.90
55648;DHT22;45266;48.756;9.246;2023-03-29T00:16:39;5.20;99.90
55648;DHT22;45266;48.756;9.246;2023-03-29T00:17:41;5.20;99.90
55648;DHT22;45266;48.756;9.246;2023-03-29T00:18:43;5.20;99.90
55648;DHT22;45266;48.756;9.246;2023-03-29T00:19:46;5.20;99.90
55648;DHT22;45266;48.756;9.246;2023-03-29T00:20:58;5.20;99.90
55648;DHT22;45266;48.756;9.246;2023-03-29T00:22:01;5.20;99.90
55648;DHT22;45266;48.756;9.246;2023-03-29T00:23:03;5.20;99.90
55648;DHT22;45266;48.756;9.246;2023-03-29T00:24:05;5.20;99.90
55648;DHT22;45266;48.756;9.246;2023-03-29T00:25:10;5.20;99.90
55648;DHT22;45266;48.756;9.246;2023-03-29T00:26:12;5.20;99.90
55648;DHT22;45266;48.756;9.246;2023-03-29T00:27:14;5.10;99.90
55648;DHT22;45266;48.756;9.246;2023-03-29T00:28:17;5.10;99.90
55648;DHT22;45266;48.756;9.246;2023-03-29T00:29:19;5.10;99.90
55648;DHT22;45266;48.756;9.246;2023-03-29T00:30:20;5.10;99.90
55648;DHT22;45266;48.756;9.246;2023-03-29T00:31:22;5.10;99.90
55648;DHT22;45266;48.756;9.246;2023-03-29T00:32:25;5.10;99.90
55648;DHT22;45266;48.756;9.246;2023-03-29T00:33:26;5.10;99.90
55648;DHT22;45266;48.756;9.246;2023-03-29T00:34:28;5.10;99.90
55648;DHT22;45266;48.756;9.246;2023-03-29T00:35:33;5.10;99.90
55648;DHT22;45266;48.756;9.246;2023-03-29T00:36:34;5.10;99.90
55648;DHT22;45266;48.756;9.246;2023-03-29T00:37:36;5.10;99.90
55648;DHT22;45266;48.756;9.246;2023-03-29T00:38:38;5.10;99.90
55648;DHT22;45266;48.756;9.246;2023-03-29T00:39:40;5.00;99.90
55648;DHT22;45266;48.756;9.246;2023-03-29T00:40:44;5.00;99.90
55648;DHT22;45266;48.756;9.246;2023-03-29T00:41:49;5.00;99.90
55648;DHT22;45266;48.756;9.246;2023-03-29T00:42:51;5.00;99.90
55648;DHT22;45266;48.756;9.246;2023-03-29T00:46:08;5.00;99.90
55648;DHT22;45266;48.756;9.246;2023-03-29T00:47:09;5.00;99.90
55648;DHT22;45266;48.756;9.246;2023-03-29T00:48:14;5.00;99.90
55648;DHT22;45266;48.756;9.246;2023-03-29T00:49:17;5.00;99.90
55648;DHT22;45266;48.756;9.246;2023-03-29T00:50:24;5.00;99.90
55648;DHT22;45266;48.756;9.246;2023-03-29T00:51:31;5.00;99.90
55648;DHT22;45266;48.756;9.246;2023-03-29T00:52:34;4.90;99.90
55648;DHT22;45266;48.756;9.246;2023-03-29T00:53:42;4.90;99.90
55648;DHT22;45266;48.756;9.246;2023-03-29T00:54:48;4.90;99.90
55648;DHT22;45266;48.756;9.246;2023-03-29T00:56:01;4.90;99.90
55648;DHT22;45266;48.756;9.246;2023-03-29T00:57:05;4.90;99.90
55648;DHT22;45266;48.756;9.246;2023-03-29T00:58:10;4.90;99.90
55648;DHT22;45266;48.756;9.246;2023-03-29T00:59:21;4.90;99.90
55648;DHT22;45266;48.756;9.246;2023-03-29T01:00:29;4.90;99.90
55648;DHT22;45266;48.756;9.246;2023-03-29T01:02:58;4.90;99.90
55648;DHT22;45266;48.756;9.246;2023-03-29T01:04:05;4.90;99.90
55648;DHT22;45266;48.756;9.246;2023-03-29T01:05:13;4.90;99.90
55648;DHT22;45266;48.756;9.246;2023-03-29T01:06:18;4.90;99.90
55648;DHT22;45266;48.756;9.246;2023-03-29T01:07:28;4.90;99.90
55648;DHT22;45266;48.756;9.246;2023-03-29T01:08:40;4.90;99.90
55648;DHT22;45266;48.756;9.246;2023-03-29T01:09:49;4.90;99.90
55648;DHT22;45266;48.756;9.246;2023-03-29T01:12:45;4.90;99.90
55648;DHT22;45266;48.756;9.246;2023-03-29T01:15:37;4.90;99.90
55648;DHT22;45266;48.756;9.246;2023-03-29T01:16:32;4.90;99.90
55648;DHT22;45266;48.756;9.246;2023-03-29T01:17:36;4.90;99.90
55648;DHT22;45266;48.756;9.246;2023-03-29T01:18:38;4.90;99.90
55648;DHT22;45266;48.756;9.246;2023-03-29T01:19:44;4.90;99.90
55648;DHT22;45266;48.756;9.246;2023-03-29T01:24:02;4.90;99.90
55648;DHT22;45266;48.756;9.246;2023-03-29T01:25:21;4.90;99.90
55648;DHT22;45266;48.756;9.246;2023-03-29T01:27:13;4.90;99.90
55648;DHT22;45266;48.756;9.246;2023-03-29T01:28:25;4.90;99.90
55648;DHT22;45266;48.756;9.246;2023-03-29T01:29:35;4.90;99.90
55648;DHT22;45266;48.756;9.246;2023-03-29T01:30:48;4.90;99.90
55648;DHT22;45266;48.756;9.246;2023-03-29T01:31:58;4.90;99.90
55648;DHT22;45266;48.756;9.246;2023-03-29T01:33:09;4.90;99.90
55648;DHT22;45266;48.756;9.246;2023-03-29T01:34:28;4.90;99.90
55648;DHT22;45266;48.756;9.246;2023-03-29T01:35:46;4.90;99.90
55648;DHT22;45266;48.756;9.246;2023-03-29T01:37:02;4.90;99.90
55648;DHT22;45266;48.756;9.246;2023-03-29T01:38:18;4.90;99.90
55648;DHT22;45266;48.756;9.246;2023-03-29T01:39:22;4.90;99.90
55648;DHT22;45266;48.756;9.246;2023-03-29T01:40:24;4.90;99.90
55648;DHT22;45266;48.756;9.246;2023-03-29T01:43:00;4.90;99.90
55648;DHT22;45266;48.756;9.246;2023-03-29T01:44:15;4.90;99.90
55648;DHT22;45266;48.756;9.246;2023-03-29T01:46:15;4.90;99.90
55648;DHT22;45266;48.756;9.246;2023-03-29T01:48:26;4.90;99.90
55648;DHT22;45266;48.756;9.246;2023-03-29T01:49:47;4.90;99.90
55648;DHT22;45266;48.756;9.246;2023-03-29T01:50:53;4.90;99.90
55648;DHT22;45266;48.756;9.246;2023-03-29T01:52:02;4.80;99.90
55648;DHT22;45266;48.756;9.246;2023-03-29T01:54:50;4.90;99.90
55648;DHT22;45266;48.756;9.246;2023-03-29T01:55:55;4.90;99.90
55648;DHT22;45266;48.756;9.246;2023-03-29T01:56:57;4.90;99.90
55648;DHT22;45266;48.756;9.246;2023-03-29T01:58:00;4.90;99.90
55648;DHT22;45266;48.756;9.246;2023-03-29T01:59:07;4.90;99.90
55648;DHT22;45266;48.756;9.246;2023-03-29T02:00:14;4.90;99.90
55648;DHT22;45266;48.756;9.246;2023-03-29T02:01:21;4.90;99.90
55648;DHT22;45266;48.756;9.246;2023-03-29T02:02:28;4.90;99.90
55648;DHT22;45266;48.756;9.246;2023-03-29T02:03:32;4.90;99.90
55648;DHT22;45266;48.756;9.246;2023-03-29T02:04:37;4.90;99.90
55648;DHT22;45266;48.756;9.246;2023-03-29T02:05:40;4.80;99.90
55648;DHT22;45266;48.756;9.246;2023-03-29T02:06:44;4.80;99.90
55648;DHT22;45266;48.756;9.246;2023-03-29T02:07:47;4.80;99.90
55648;DHT22;45266;48.756;9.246;2023-03-29T02:08:51;4.80;99.90
55648;DHT22;45266;48.756;9.246;2023-03-29T02:09:54;4.80;99.90
55648;DHT22;45266;48.756;9.246;2023-03-29T02:10:56;4.80;99.90
55648;DHT22;45266;48.756;9.246;2023-03-29T02:11:59;4.70;99.90
55648;DHT22;45266;48.756;9.246;2023-03-29T02:13:03;4.70;99.90
55648;DHT22;45266;48.756;9.246;2023-03-29T02:14:06;4.70;99.90
55648;DHT22;45266;48.756;9.246;2023-03-29T02:15:16;4.70;99.90
55648;DHT22;45266;48.756;9.246;2023-03-29T02:16:21;4.70;99.90
55648;DHT22;45266;48.756;9.246;2023-03-29T02:17:26;4.70;99.90
55648;DHT22;45266;48.756;9.246;2023-03-29T02:18:28;4.70;99.90
55648;DHT22;45266;48.756;9.246;2023-03-29T02:19:30;4.60;99.90
55648;DHT22;45266;48.756;9.246;2023-03-29T02:20:35;4.60;99.90
55648;DHT22;45266;48.756;9.246;2023-03-29T02:21:59;4.70;99.90
55648;DHT22;45266;48.756;9.246;2023-03-29T02:24:24;4.60;99.90
55648;DHT22;45266;48.756;9.246;2023-03-29T02:25:27;4.60;99.90
55648;DHT22;45266;48.756;9.246;2023-03-29T02:26:29;4.60;99.90
55648;DHT22;45266;48.756;9.246;2023-03-29T02:27:32;4.70;99.90
55648;DHT22;45266;48.756;9.246;2023-03-29T02:28:34;4.70;99.90
55648;DHT22;45266;48.756;9.246;2023-03-29T02:29:36;4.70;99.90
55648;DHT22;45266;48.756;9.246;2023-03-29T02:31:54;4.70;99.90
55648;DHT22;45266;48.756;9.246;2023-03-29T02:33:05;4.70;99.90
55648;DHT22;45266;48.756;9.246;2023-03-29T02:34:27;4.70;99.90
55648;DHT22;45266;48.756;9.246;2023-03-29T02:35:34;4.70;99.90
55648;DHT22;45266;48.756;9.246;2023-03-29T02:36:51;4.70;99.90
55648;DHT22;45266;48.756;9.246;2023-03-29T02:37:54;4.70;99.90
55648;DHT22;45266;48.756;9.246;2023-03-29T02:38:58;4.60;99.90
55648;DHT22;45266;48.756;9.246;2023-03-29T02:40:03;4.60;99.90
55648;DHT22;45266;48.756;9.246;2023-03-29T02:41:08;4.60;99.90
55648;DHT22;45266;48.756;9.246;2023-03-29T02:42:11;4.50;99.90
55648;DHT22;45266;48.756;9.246;2023-03-29T02:43:14;4.60;99.90
55648;DHT22;45266;48.756;9.246;2023-03-29T02:44:27;4.60;99.90
55648;DHT22;45266;48.756;9.246;2023-03-29T02:45:31;4.60;99.90
55648;DHT22;45266;48.756;9.246;2023-03-29T02:46:34;4.60;99.90
55648;DHT22;45266;48.756;9.246;2023-03-29T02:47:42;4.60;99.90
55648;DHT22;45266;48.756;9.246;2023-03-29T02:48:47;4.60;99.90
55648;DHT22;45266;48.756;9.246;2023-03-29T02:49:50;4.60;99.90
55648;DHT22;45266;48.756;9.246;2023-03-29T02:50:54;4.60;99.90
55648;DHT22;45266;48.756;9.246;2023-03-29T02:52:00;4.60;99.90
55648;DHT22;45266;48.756;9.246;2023-03-29T02:53:19;4.50;99.90
55648;DHT22;45266;48.756;9.246;2023-03-29T02:54:24;4.50;99.90
55648;DHT22;45266;48.756;9.246;2023-03-29T02:55:30;4.60;99.90
55648;DHT22;45266;48.756;9.246;2023-03-29T02:56:53;4.50;99.90
55648;DHT22;45266;48.756;9.246;2023-03-29T02:57:57;4.50;99.90
55648;DHT22;45266;48.756;9.246;2023-03-29T02:58:59;4.50;99.90
55648;DHT22;45266;48.756;9.246;2023-03-29T03:00:00;4.50;99.90
55648;DHT22;45266;48.756;9.246;2023-03-29T03:01:03;4.40;99.90
55648;DHT22;45266;48.756;9.246;2023-03-29T03:02:07;4.40;99.90
55648;DHT22;45266;48.756;9.246;2023-03-29T03:03:09;4.40;99.90
55648;DHT22;45266;48.756;9.246;2023-03-29T03:04:12;4.30;99.90
55648;DHT22;45266;48.756;9.246;2023-03-29T03:05:16;4.30;99.90
55648;DHT22;45266;48.756;9.246;2023-03-29T03:06:18;4.30;99.90
55648;DHT22;45266;48.756;9.246;2023-03-29T03:07:19;4.20;99.90
55648;DHT22;45266;48.756;9.246;2023-03-29T03:08:21;4.20;99.90
55648;DHT22;45266;48.756;9.246;2023-03-29T03:09:23;4.20;99.90
55648;DHT22;45266;48.756;9.246;2023-03-29T03:10:25;4.20;99.90
55648;DHT22;45266;48.756;9.246;2023-03-29T03:11:27;4.10;99.90
55648;DHT22;45266;48.756;9.246;2023-03-29T03:12:29;4.10;99.90
55648;DHT22;45266;48.756;9.246;2023-03-29T03:13:31;4.10;99.90
55648;DHT22;45266;48.756;9.246;2023-03-29T03:14:33;4.10;99.90
55648;DHT22;45266;48.756;9.246;2023-03-29T03:15:35;4.00;99.90
55648;DHT22;45266;48.756;9.246;2023-03-29T03:16:37;4.00;99.90
55648;DHT22;45266;48.756;9.246;2023-03-29T03:17:40;4.00;99.90
55648;DHT22;45266;48.756;9.246;2023-03-29T03:18:42;4.00;99.90
55648;DHT22;45266;48.756;9.246;2023-03-29T03:19:49;4.00;99.90
55648;DHT22;45266;48.756;9.246;2023-03-29T03:20:57;4.10;99.90
55648;DHT22;45266;48.756;9.246;2023-03-29T03:22:02;4.00;99.90
55648;DHT22;45266;48.756;9.246;2023-03-29T03:23:06;4.00;99.90
55648;DHT22;45266;48.756;9.246;2023-03-29T03:24:10;4.00;99.90
55648;DHT22;45266;48.756;9.246;2023-03-29T03:25:12;4.00;99.90
55648;DHT22;45266;48.756;9.246;2023-03-29T03:26:14;4.00;99.90
55648;DHT22;45266;48.756;9.246;2023-03-29T03:27:19;4.00;99.90
55648;DHT22;45266;48.756;9.246;2023-03-29T03:28:22;4.00;99.90
55648;DHT22;45266;48.756;9.246;2023-03-29T03:29:25;4.00;99.90
55648;DHT22;45266;48.756;9.246;2023-03-29T03:30:27;4.00;99.90
55648;DHT22;45266;48.756;9.246;2023-03-29T03:31:29;4.00;99.90
55648;DHT22;45266;48.756;9.246;2023-03-29T03:32:33;4.10;99.90
55648;DHT22;45266;48.756;9.246;2023-03-29T03:33:34;4.00;99.90
55648;DHT22;45266;48.756;9.246;2023-03-29T03:34:36;4.10;99.90
55648;DHT22;45266;48.756;9.246;2023-03-29T03:35:39;4.10;99.90
55648;DHT22;45266;48.756;9.246;2023-03-29T03:36:40;4.10;99.90
55648;DHT22;45266;48.756;9.246;2023-03-29T03:37:42;4.00;99.90
55648;DHT22;45266;48.756;9.246;2023-03-29T03:38:44;4.10;99.90
55648;DHT22;45266;48.756;9.246;2023-03-29T03:39:46;4.20;99.90
55648;DHT22;45266;48.756;9.246;2023-03-29T03:40:55;4.20;99.90
55648;DHT22;45266;48.756;9.246;2023-03-29T03:41:57;4.20;99.90
55648;DHT22;45266;48.756;9.246;2023-03-29T03:42:59;4.20;99.90
55648;DHT22;45266;48.756;9.246;2023-03-29T03:44:01;4.20;99.90
55648;DHT22;45266;48.756;9.246;2023-03-29T03:45:04;4.20;99.90
55648;DHT22;45266;48.756;9.246;2023-03-29T03:46:06;4.20;99.90
55648;DHT22;45266;48.756;9.246;2023-03-29T03:47:09;4.20;99.90
55648;DHT22;45266;48.756;9.246;2023-03-29T03:48:10;4.20;99.90
55648;DHT22;45266;48.756;9.246;2023-03-29T03:49:12;4.20;99.90
55648;DHT22;45266;48.756;9.246;2023-03-29T03:50:15;4.20;99.90
55648;DHT22;45266;48.756;9.246;2023-03-29T03:51:18;4.20;99.90
55648;DHT22;45266;48.756;9.246;2023-03-29T03:52:20;4.20;99.90
55648;DHT22;45266;48.756;9.246;2023-03-29T03:53:22;4.20;99.90
55648;DHT22;45266;48.756;9.246;2023-03-29T03:54:24;4.20;99.90
55648;DHT22;45266;48.756;9.246;2023-03-29T03:55:26;4.20;99.90
55648;DHT22;45266;48.756;9.246;2023-03-29T03:56:30;4.30;99.90
55648;DHT22;45266;48.756;9.246;2023-03-29T03:57:32;4.30;99.90
55648;DHT22;45266;48.756;9.246;2023-03-29T03:58:34;4.20;99.90
55648;DHT22;45266;48.756;9.246;2023-03-29T03:59:37;4.30;99.90
55648;DHT22;45266;48.756;9.246;2023-03-29T04:00:39;4.30;99.90
55648;DHT22;45266;48.756;9.246;2023-03-29T04:01:42;4.30;99.90
55648;DHT22;45266;48.756;9.246;2023-03-29T04:02:48;4.30;99.90
55648;DHT22;45266;48.756;9.246;2023-03-29T04:03:50;4.30;99.90
55648;DHT22;45266;48.756;9.246;2023-03-29T04:04:52;4.30;99.90
55648;DHT22;45266;48.756;9.246;2023-03-29T04:05:58;4.30;99.90
55648;DHT22;45266;48.756;9.246;2023-03-29T04:07:00;4.30;99.90
55648;DHT22;45266;48.756;9.246;2023-03-29T04:08:04;4.30;99.90
55648;DHT22;45266;48.756;9.246;2023-03-29T04:09:07;4.30;99.90
55648;DHT22;45266;48.756;9.246;2023-03-29T04:10:09;4.30;99.90
55648;DHT22;45266;48.756;9.246;2023-03-29T04:11:11;4.30;99.90
55648;DHT22;45266;48.756;9.246;2023-03-29T04:12:13;4.30;99.90
55648;DHT22;45266;48.756;9.246;2023-03-29T04:13:15;4.30;99.90
55648;DHT22;45266;48.756;9.246;2023-03-29T04:14:17;4.30;99.90
55648;DHT22;45266;48.756;9.246;2023-03-29T04:15:19;4.30;99.90
55648;DHT22;45266;48.756;9.246;2023-03-29T04:16:21;4.30;99.90
55648;DHT22;45266;48.756;9.246;2023-03-29T04:17:23;4.20;99.90
55648;DHT22;45266;48.756;9.246;2023-03-29T04:18:24;4.20;99.90
55648;DHT22;45266;48.756;9.246;2023-03-29T04:19:26;4.20;99.90
55648;DHT22;45266;48.756;9.246;2023-03-29T04:20:28;4.20;99.90
55648;DHT22;45266;48.756;9.246;2023-03-29T04:21:30;4.20;99.90
55648;DHT22;45266;48.756;9.246;2023-03-29T04:22:34;4.20;99.90
55648;DHT22;45266;48.756;9.246;2023-03-29T04:23:36;4.20;99.90
55648;DHT22;45266;48.756;9.246;2023-03-29T04:24:38;4.20;99.90
55648;DHT22;45266;48.756;9.246;2023-03-29T04:25:39;4.20;99.90
55648;DHT22;45266;48.756;9.246;2023-03-29T04:26:42;4.20;99.90
55648;DHT22;45266;48.756;9.246;2023-03-29T04:27:44;4.20;99.90
55648;DHT22;45266;48.756;9.246;2023-03-29T04:28:46;4.20;99.90
55648;DHT22;45266;48.756;9.246;2023-03-29T04:29:48;4.20;99.90
55648;DHT22;45266;48.756;9.246;2023-03-29T04:30:50;4.20;99.90
55648;DHT22;45266;48.756;9.246;2023-03-29T04:31:53;4.20;99.90
55648;DHT22;45266;48.756;9.246;2023-03-29T04:32:55;4.20;99.90
55648;DHT22;45266;48.756;9.246;2023-03-29T04:33:59;4.20;99.90
55648;DHT22;45266;48.756;9.246;2023-03-29T04:35:01;4.20;99.90
55648;DHT22;45266;48.756;9.246;2023-03-29T04:36:05;4.20;99.90
55648;DHT22;45266;48.756;9.246;2023-03-29T04:37:07;4.20;99.90
55648;DHT22;45266;48.756;9.246;2023-03-29T04:38:11;4.20;99.90
55648;DHT22;45266;48.756;9.246;2023-03-29T04:39:13;4.20;99.90
55648;DHT22;45266;48.756;9.246;2023-03-29T04:40:15;4.20;99.90
55648;DHT22;45266;48.756;9.246;2023-03-29T04:41:20;4.30;99.90
55648;DHT22;45266;48.756;9.246;2023-03-29T04:42:22;4.30;99.90
55648;DHT22;45266;48.756;9.246;2023-03-29T04:43:24;4.30;99.90
55648;DHT22;45266;48.756;9.246;2023-03-29T04:44:26;4.30;99.90
55648;DHT22;45266;48.756;9.246;2023-03-29T04:45:28;4.30;99.90
55648;DHT22;45266;48.756;9.246;2023-03-29T04:46:30;4.30;99.90
55648;DHT22;45266;48.756;9.246;2023-03-29T04:47:33;4.40;99.90
55648;DHT22;45266;48.756;9.246;2023-03-29T04:48:36;4.40;99.90
55648;DHT22;45266;48.756;9.246;2023-03-29T04:49:39;4.50;99.90
55648;DHT22;45266;48.756;9.246;2023-03-29T04:50:45;4.50;99.90
55648;DHT22;45266;48.756;9.246;2023-03-29T04:51:47;4.50;99.90
55648;DHT22;45266;48.756;9.246;2023-03-29T04:52:48;4.50;99.90
55648;DHT22;45266;48.756;9.246;2023-03-29T04:53:51;4.50;99.90
55648;DHT22;45266;48.756;9.246;2023-03-29T04:54:53;4.50;99.90
55648;DHT22;45266;48.756;9.246;2023-03-29T04:55:54;4.50;99.90
55648;DHT22;45266;48.756;9.246;2023-03-29T04:56:58;4.60;99.90
55648;DHT22;45266;48.756;9.246;2023-03-29T04:58:00;4.60;99.90
55648;DHT22;45266;48.756;9.246;2023-03-29T04:59:03;4.60;99.90
55648;DHT22;45266;48.756;9.246;2023-03-29T05:00:05;4.60;99.90
55648;DHT22;45266;48.756;9.246;2023-03-29T05:01:16;4.60;99.90
55648;DHT22;45266;48.756;9.246;2023-03-29T05:02:18;4.70;99.90
55648;DHT22;45266;48.756;9.246;2023-03-29T05:03:20;4.60;99.90
55648;DHT22;45266;48.756;9.246;2023-03-29T05:04:23;4.70;99.90
55648;DHT22;45266;48.756;9.246;2023-03-29T05:05:25;4.70;99.90
55648;DHT22;45266;48.756;9.246;2023-03-29T05:06:27;4.70;99.90
55648;DHT22;45266;48.756;9.246;2023-03-29T05:07:29;4.60;99.90
55648;DHT22;45266;48.756;9.246;2023-03-29T05:08:35;4.70;99.90
55648;DHT22;45266;48.756;9.246;2023-03-29T05:09:40;4.70;99.90
55648;DHT22;45266;48.756;9.246;2023-03-29T05:10:43;4.70;99.90
55648;DHT22;45266;48.756;9.246;2023-03-29T05:11:45;4.70;99.90
55648;DHT22;45266;48.756;9.246;2023-03-29T05:12:47;4.80;99.90
55648;DHT22;45266;48.756;9.246;2023-03-29T05:13:54;4.80;99.90
55648;DHT22;45266;48.756;9.246;2023-03-29T05:14:57;4.80;99.90
55648;DHT22;45266;48.756;9.246;2023-03-29T05:15:59;4.80;99.90
55648;DHT22;45266;48.756;9.246;2023-03-29T05:17:01;4.80;99.90
55648;DHT22;45266;48.756;9.246;2023-03-29T05:18:03;4.90;99.90
55648;DHT22;45266;48.756;9.246;2023-03-29T05:19:05;4.80;99.90
55648;DHT22;45266;48.756;9.246;2023-03-29T05:20:07;4.90;99.90
55648;DHT22;45266;48.756;9.246;2023-03-29T05:21:13;4.90;99.90
55648;DHT22;45266;48.756;9.246;2023-03-29T05:22:15;4.90;99.90
55648;DHT22;45266;48.756;9.246;2023-03-29T05:23:17;4.90;99.90
55648;DHT22;45266;48.756;9.246;2023-03-29T05:24:19;5.00;99.90
55648;DHT22;45266;48.756;9.246;2023-03-29T05:25:21;5.00;99.90
55648;DHT22;45266;48.756;9.246;2023-03-29T05:26:23;5.00;99.90
55648;DHT22;45266;48.756;9.246;2023-03-29T05:27:25;5.00;99.90
55648;DHT22;45266;48.756;9.246;2023-03-29T05:28:28;5.00;99.90
55648;DHT22;45266;48.756;9.246;2023-03-29T05:29:30;5.00;99.90
55648;DHT22;45266;48.756;9.246;2023-03-29T05:30:33;5.10;99.90
55648;DHT22;45266;48.756;9.246;2023-03-29T05:31:35;5.10;99.90
55648;DHT22;45266;48.756;9.246;2023-03-29T05:32:41;5.10;99.90
55648;DHT22;45266;48.756;9.246;2023-03-29T05:33:43;5.10;99.90
55648;DHT22;45266;48.756;9.246;2023-03-29T05:34:44;5.10;99.90
55648;DHT22;45266;48.756;9.246;2023-03-29T05:35:46;5.10;99.90
55648;DHT22;45266;48.756;9.246;2023-03-29T05:36:48;5.10;99.90
55648;DHT22;45266;48.756;9.246;2023-03-29T05:37:50;5.20;99.90
55648;DHT22;45266;48.756;9.246;2023-03-29T05:38:51;5.20;99.90
55648;DHT22;45266;48.756;9.246;2023-03-29T05:39:53;5.20;99.90
55648;DHT22;45266;48.756;9.246;2023-03-29T05:41:07;5.20;99.90
55648;DHT22;45266;48.756;9.246;2023-03-29T05:42:09;5.30;99.90
55648;DHT22;45266;48.756;9.246;2023-03-29T05:43:14;5.30;99.90
55648;DHT22;45266;48.756;9.246;2023-03-29T05:44:15;5.30;99.90
55648;DHT22;45266;48.756;9.246;2023-03-29T05:45:18;5.30;99.90
55648;DHT22;45266;48.756;9.246;2023-03-29T05:46:19;5.40;99.90
55648;DHT22;45266;48.756;9.246;2023-03-29T05:47:22;5.40;99.90
55648;DHT22;45266;48.756;9.246;2023-03-29T05:48:24;5.50;99.90
55648;DHT22;45266;48.756;9.246;2023-03-29T05:49:27;5.40;99.90
55648;DHT22;45266;48.756;9.246;2023-03-29T05:50:29;5.40;99.90
55648;DHT22;45266;48.756;9.246;2023-03-29T05:51:30;5.40;99.90
55648;DHT22;45266;48.756;9.246;2023-03-29T05:52:33;5.40;99.90
55648;DHT22;45266;48.756;9.246;2023-03-29T05:53:35;5.40;99.90
55648;DHT22;45266;48.756;9.246;2023-03-29T05:54:37;5.40;99.90
55648;DHT22;45266;48.756;9.246;2023-03-29T05:55:40;5.40;99.90
55648;DHT22;45266;48.756;9.246;2023-03-29T05:56:41;5.40;99.90
55648;DHT22;45266;48.756;9.246;2023-03-29T05:57:44;5.50;99.90
55648;DHT22;45266;48.756;9.246;2023-03-29T05:58:45;5.50;99.90
55648;DHT22;45266;48.756;9.246;2023-03-29T05:59:47;5.50;99.90
55648;DHT22;45266;48.756;9.246;2023-03-29T06:00:49;5.60;99.90
55648;DHT22;45266;48.756;9.246;2023-03-29T06:01:51;5.60;99.90
55648;DHT22;45266;48.756;9.246;2023-03-29T06:02:53;5.60;99.90
55648;DHT22;45266;48.756;9.246;2023-03-29T06:04:07;5.60;99.90
55648;DHT22;45266;48.756;9.246;2023-03-29T06:05:09;5.60;99.90
55648;DHT22;45266;48.756;9.246;2023-03-29T06:06:10;5.60;99.90
55648;DHT22;45266;48.756;9.246;2023-03-29T06:07:12;5.60;99.90
55648;DHT22;45266;48.756;9.246;2023-03-29T06:08:15;5.70;99.90
55648;DHT22;45266;48.756;9.246;2023-03-29T06:09:17;5.70;99.90
55648;DHT22;45266;48.756;9.246;2023-03-29T06:10:20;5.70;99.90
55648;DHT22;45266;48.756;9.246;2023-03-29T06:11:22;5.70;99.90
55648;DHT22;45266;48.756;9.246;2023-03-29T06:12:24;5.70;99.90
55648;DHT22;45266;48.756;9.246;2023-03-29T06:13:27;5.80;99.90
55648;DHT22;45266;48.756;9.246;2023-03-29T06:14:29;5.80;99.90
55648;DHT22;45266;48.756;9.246;2023-03-29T06:15:33;5.80;99.90
55648;DHT22;45266;48.756;9.246;2023-03-29T06:16:35;5.80;99.90
55648;DHT22;45266;48.756;9.246;2023-03-29T06:17:38;5.80;99.90
55648;DHT22;45266;48.756;9.246;2023-03-29T06:18:40;5.90;99.90
55648;DHT22;45266;48.756;9.246;2023-03-29T06:19:42;5.90;99.90
55648;DHT22;45266;48.756;9.246;2023-03-29T06:20:51;5.90;99.90
55648;DHT22;45266;48.756;9.246;2023-03-29T06:21:53;5.90;99.90
55648;DHT22;45266;48.756;9.246;2023-03-29T06:22:55;5.90;99.90
55648;DHT22;45266;48.756;9.246;2023-03-29T06:23:58;5.90;99.90
55648;DHT22;45266;48.756;9.246;2023-03-29T06:25:00;6.00;99.90
55648;DHT22;45266;48.756;9.246;2023-03-29T06:26:02;6.00;99.90
55648;DHT22;45266;48.756;9.246;2023-03-29T06:27:04;6.00;99.90
55648;DHT22;45266;48.756;9.246;2023-03-29T06:28:06;6.00;99.90
55648;DHT22;45266;48.756;9.246;2023-03-29T06:29:08;6.00;99.90
55648;DHT22;45266;48.756;9.246;2023-03-29T06:30:11;6.00;99.90
55648;DHT22;45266;48.756;9.246;2023-03-29T06:31:13;6.10;99.90
55648;DHT22;45266;48.756;9.246;2023-03-29T06:32:15;6.10;99.90
55648;DHT22;45266;48.756;9.246;2023-03-29T06:33:17;6.10;99.90
55648;DHT22;45266;48.756;9.246;2023-03-29T06:34:20;6.10;99.90
55648;DHT22;45266;48.756;9.246;2023-03-29T06:35:22;6.20;99.90
55648;DHT22;45266;48.756;9.246;2023-03-29T06:36:24;6.20;99.90
55648;DHT22;45266;48.756;9.246;2023-03-29T06:37:26;6.20;99.90
55648;DHT22;45266;48.756;9.246;2023-03-29T06:38:28;6.30;99.90
55648;DHT22;45266;48.756;9.246;2023-03-29T06:39:31;6.30;99.90
55648;DHT22;45266;48.756;9.246;2023-03-29T06:40:33;6.30;99.90
55648;DHT22;45266;48.756;9.246;2023-03-29T06:41:35;6.30;99.90
55648;DHT22;45266;48.756;9.246;2023-03-29T06:42:37;6.40;99.90
55648;DHT22;45266;48.756;9.246;2023-03-29T06:43:39;6.40;99.90
55648;DHT22;45266;48.756;9.246;2023-03-29T06:44:41;6.40;99.90
55648;DHT22;45266;48.756;9.246;2023-03-29T06:45:43;6.40;99.90
55648;DHT22;45266;48.756;9.246;2023-03-29T06:46:45;6.50;99.90
55648;DHT22;45266;48.756;9.246;2023-03-29T06:47:47;6.50;99.90
55648;DHT22;45266;48.756;9.246;2023-03-29T06:48:48;6.50;99.90
55648;DHT22;45266;48.756;9.246;2023-03-29T06:49:50;6.60;99.90
55648;DHT22;45266;48.756;9.246;2023-03-29T06:50:52;6.60;99.90
55648;DHT22;45266;48.756;9.246;2023-03-29T06:51:55;6.70;99.90
55648;DHT22;45266;48.756;9.246;2023-03-29T06:52:57;6.70;99.90
55648;DHT22;45266;48.756;9.246;2023-03-29T06:53:59;6.70;99.90
55648;DHT22;45266;48.756;9.246;2023-03-29T06:55:01;6.80;99.90
55648;DHT22;45266;48.756;9.246;2023-03-29T06:56:04;6.80;99.90
55648;DHT22;45266;48.756;9.246;2023-03-29T06:57:10;6.90;99.90
55648;DHT22;45266;48.756;9.246;2023-03-29T06:58:13;6.90;99.90
55648;DHT22;45266;48.756;9.246;2023-03-29T06:59:16;6.90;99.90
55648;DHT22;45266;48.756;9.246;2023-03-29T07:00:19;7.00;99.90
55648;DHT22;45266;48.756;9.246;2023-03-29T07:01:28;7.00;99.90
55648;DHT22;45266;48.756;9.246;2023-03-29T07:02:33;7.00;99.90
55648;DHT22;45266;48.756;9.246;2023-03-29T07:03:35;7.00;99.90
55648;DHT22;45266;48.756;9.246;2023-03-29T07:04:37;7.10;99.90
55648;DHT22;45266;48.756;9.246;2023-03-29T07:05:39;7.10;99.90
55648;DHT22;45266;48.756;9.246;2023-03-29T07:06:42;7.10;99.90
55648;DHT22;45266;48.756;9.246;2023-03-29T07:07:48;7.20;99.90
55648;DHT22;45266;48.756;9.246;2023-03-29T07:09:05;7.20;99.90